createdAt,value
2023-03-01T00:01:38.879Z,55.72
2023-03-01T00:04:07.257Z,56.17
2023-03-01T00:06:35.557Z,55.98
2023-03-01T00:09:05.861Z,55.58
2023-03-01T00:11:35.647Z,55.55
2023-03-01T00:14:08.144Z,55.56
2023-03-01T00:16:39.756Z,56.00
2023-03-01T00:19:08.875Z,55.91
2023-03-01T00:21:37.316Z,56.21
2023-03-01T00:24:07.887Z,55.70
2023-03-01T00:26:36.373Z,56.00
2023-03-01T00:29:07.146Z,55.92
2023-03-01T00:31:36.023Z,56.14
2023-03-01T00:34:06.857Z,56.55
2023-03-01T00:36:37.691Z,55.93
2023-03-01T00:39:12.038Z,56.08
2023-03-01T00:41:41.196Z,56.02
2023-03-01T00:44:09.631Z,56.79
2023-03-01T00:46:38.294Z,56.64
2023-03-01T00:49:06.843Z,56.05
2023-03-01T00:51:35.294Z,56.37
2023-03-01T00:54:04.704Z,56.30
2023-03-01T00:56:34.680Z,56.43
2023-03-01T00:59:03.512Z,56.51
2023-03-01T01:01:33.118Z,56.16
2023-03-01T01:04:03.610Z,56.80
2023-03-01T01:06:33.873Z,56.64
2023-03-01T01:09:02.899Z,56.60
2023-03-01T01:11:33.339Z,56.55
2023-03-01T01:14:01.967Z,56.14
2023-03-01T01:16:32.219Z,56.67
2023-03-01T01:19:01.063Z,56.64
2023-03-01T01:21:30.368Z,56.78
2023-03-01T01:23:59.568Z,56.85
2023-03-01T01:26:30.403Z,56.62
2023-03-01T01:29:00.927Z,57.04
2023-03-01T01:31:30.824Z,56.40
2023-03-01T01:34:02.347Z,56.78
2023-03-01T01:36:31.632Z,56.17
2023-03-01T01:39:00.684Z,56.79
2023-03-01T01:41:31.123Z,56.42
2023-03-01T01:44:28.688Z,56.59
2023-03-01T01:46:59.704Z,56.80
2023-03-01T01:49:34.444Z,56.45
2023-03-01T01:52:09.993Z,56.46
2023-03-01T01:54:44.100Z,57.02
2023-03-01T01:57:17.191Z,56.56
2023-03-01T01:59:53.096Z,56.42
2023-03-01T02:02:22.703Z,56.27
2023-03-01T02:04:54.919Z,56.51
2023-03-01T02:07:25.501Z,56.43
2023-03-01T02:09:55.453Z,56.19
2023-03-01T02:12:26.807Z,56.44
2023-03-01T02:14:56.557Z,56.76
2023-03-01T02:17:25.535Z,56.74
2023-03-01T02:20:08.187Z,56.09
2023-03-01T02:22:39.768Z,56.42
2023-03-01T02:25:22.477Z,56.31
2023-03-01T02:27:58.202Z,56.76
2023-03-01T02:30:29.336Z,56.21
2023-03-01T02:33:03.877Z,56.07
2023-03-01T02:35:36.283Z,56.31
2023-03-01T02:38:06.132Z,55.96
2023-03-01T02:40:39.492Z,55.96
2023-03-01T02:43:11.358Z,55.98
2023-03-01T02:45:50.440Z,55.75
2023-03-01T02:48:18.817Z,55.95
2023-03-01T02:51:05.471Z,55.59
2023-03-01T02:53:44.710Z,55.70
2023-03-01T02:56:14.326Z,55.94
2023-03-01T02:58:49.140Z,56.35
2023-03-01T03:01:18.991Z,56.36
2023-03-01T03:03:47.433Z,56.32
2023-03-01T03:06:16.142Z,56.35
2023-03-01T03:08:45.120Z,56.06
2023-03-01T03:11:13.435Z,55.85
2023-03-01T03:13:49.213Z,56.06
2023-03-01T03:16:19.496Z,55.83
2023-03-01T03:18:47.872Z,56.80
2023-03-01T03:21:16.494Z,56.42
2023-03-01T03:23:45.000Z,56.62
2023-03-01T03:26:16.319Z,56.81
2023-03-01T03:28:44.840Z,56.62
2023-03-01T03:31:13.243Z,56.44
2023-03-01T03:33:43.061Z,56.77
2023-03-01T03:36:14.063Z,56.73
2023-03-01T03:38:43.260Z,56.48
2023-03-01T03:41:11.610Z,56.50
2023-03-01T03:43:41.200Z,56.51
2023-03-01T03:46:09.929Z,56.50
2023-03-01T03:48:40.073Z,56.51
2023-03-01T03:51:12.843Z,56.91
2023-03-01T03:53:41.388Z,57.13
2023-03-01T03:56:10.014Z,57.11
2023-03-01T03:58:38.380Z,57.20
2023-03-01T04:01:07.079Z,57.26
2023-03-01T04:03:36.325Z,56.83
2023-03-01T04:06:05.202Z,56.85
2023-03-01T04:08:35.034Z,57.02
2023-03-01T04:11:25.522Z,56.51
2023-03-01T04:13:56.372Z,56.84
2023-03-01T04:16:25.612Z,56.60
2023-03-01T04:18:54.617Z,56.76
2023-03-01T04:21:23.964Z,56.74
2023-03-01T04:23:53.882Z,56.89
2023-03-01T04:26:22.410Z,56.93
2023-03-01T04:28:51.669Z,56.61
2023-03-01T04:31:22.698Z,56.82
2023-03-01T04:33:53.660Z,56.66
2023-03-01T04:36:24.432Z,56.59
2023-03-01T04:38:54.309Z,56.62
2023-03-01T04:41:25.787Z,56.69
2023-03-01T04:43:54.197Z,57.00
2023-03-01T04:46:29.430Z,57.15
2023-03-01T04:48:58.102Z,56.85
2023-03-01T04:51:26.540Z,57.23
2023-03-01T04:53:56.660Z,57.05
2023-03-01T04:56:25.195Z,57.09
2023-03-01T04:58:55.999Z,56.76
2023-03-01T05:01:24.394Z,56.80
2023-03-01T05:03:54.384Z,56.90
2023-03-01T05:06:23.440Z,57.02
2023-03-01T05:08:51.894Z,56.94
2023-03-01T05:11:22.007Z,57.40
2023-03-01T05:13:51.052Z,57.26
2023-03-01T05:16:21.152Z,56.96
2023-03-01T05:18:51.648Z,56.92
2023-03-01T05:21:20.216Z,57.02
2023-03-01T05:23:48.524Z,57.23
2023-03-01T05:26:33.892Z,56.97
2023-03-01T05:29:03.760Z,57.20
2023-03-01T05:31:32.742Z,57.44
2023-03-01T05:34:01.027Z,57.27
2023-03-01T05:36:29.781Z,56.74
2023-03-01T05:38:58.275Z,57.04
2023-03-01T05:41:26.667Z,56.86
2023-03-01T05:43:54.978Z,57.11
2023-03-01T05:46:25.716Z,56.83
2023-03-01T05:48:54.164Z,57.14
2023-03-01T05:51:23.324Z,57.11
2023-03-01T05:53:51.942Z,57.20
2023-03-01T05:56:20.199Z,57.16
2023-03-01T05:58:50.494Z,57.11
2023-03-01T06:01:18.874Z,57.64
2023-03-01T06:03:49.597Z,57.60
2023-03-01T06:06:18.121Z,57.86
2023-03-01T06:08:46.474Z,57.49
2023-03-01T06:11:14.714Z,57.58
2023-03-01T06:13:44.190Z,57.57
2023-03-01T06:16:13.542Z,57.33
2023-03-01T06:18:42.634Z,57.60
2023-03-01T06:21:12.855Z,57.11
2023-03-01T06:23:41.177Z,57.15
2023-03-01T06:26:10.688Z,57.38
2023-03-01T06:28:39.226Z,57.43
2023-03-01T06:31:09.990Z,57.46
2023-03-01T06:33:38.589Z,57.81
2023-03-01T06:36:07.412Z,57.81
2023-03-01T06:38:37.370Z,57.93
2023-03-01T06:41:05.979Z,57.97
2023-03-01T06:43:34.340Z,57.87
2023-03-01T06:46:02.979Z,57.62
2023-03-01T06:48:31.561Z,57.57
2023-03-01T06:51:01.802Z,57.88
2023-03-01T06:53:30.318Z,57.97
2023-03-01T06:56:01.380Z,58.02
2023-03-01T06:58:29.756Z,57.65
2023-03-01T07:00:58.201Z,57.56
2023-03-01T07:03:26.595Z,57.86
2023-03-01T07:05:54.966Z,57.55
2023-03-01T07:08:23.338Z,57.80
2023-03-01T07:10:57.684Z,57.87
2023-03-01T07:13:27.626Z,57.98
2023-03-01T07:15:56.377Z,57.39
2023-03-01T07:18:24.749Z,57.49
2023-03-01T07:20:53.098Z,57.55
2023-03-01T07:23:21.746Z,57.55
2023-03-01T07:25:54.813Z,57.50
2023-03-01T07:28:27.220Z,57.96
2023-03-01T07:30:56.279Z,57.47
2023-03-01T07:33:24.640Z,57.80
2023-03-01T07:35:58.936Z,57.42
2023-03-01T07:38:27.457Z,57.25
2023-03-01T07:40:58.420Z,57.53
2023-03-01T07:43:28.385Z,57.27
2023-03-01T07:45:56.806Z,57.30
2023-03-01T07:48:25.125Z,57.28
2023-03-01T07:50:54.563Z,57.13
2023-03-01T07:53:23.008Z,56.74
2023-03-01T07:55:51.290Z,57.04
2023-03-01T07:58:19.633Z,57.40
2023-03-01T08:00:49.437Z,57.01
2023-03-01T08:05:44.809Z,56.68
2023-03-01T08:08:13.164Z,56.83
2023-03-01T08:10:41.478Z,56.35
2023-03-01T08:13:10.406Z,57.00
2023-03-01T08:15:38.724Z,57.09
2023-03-01T08:18:08.507Z,56.75
2023-03-01T08:20:36.884Z,57.13
2023-03-01T08:23:05.162Z,57.11
2023-03-01T08:25:33.757Z,56.71
2023-03-01T08:28:02.075Z,56.50
2023-03-01T08:30:30.609Z,56.87
2023-03-01T08:32:59.088Z,56.78
2023-03-01T08:35:28.980Z,57.12
2023-03-01T08:37:57.719Z,57.06
2023-03-01T08:40:25.960Z,57.12
2023-03-01T08:42:54.273Z,56.65
2023-03-01T08:45:23.105Z,56.89
2023-03-01T08:47:54.968Z,56.58
2023-03-01T08:50:25.470Z,57.07
2023-03-01T08:52:55.249Z,56.58
2023-03-01T08:55:23.847Z,56.92
2023-03-01T08:57:52.187Z,56.33
2023-03-01T09:00:21.470Z,56.52
2023-03-01T09:02:49.790Z,56.41
2023-03-01T09:05:20.240Z,56.52
2023-03-01T09:07:48.657Z,56.10
2023-03-01T09:10:18.799Z,55.93
2023-03-01T09:12:47.145Z,55.82
2023-03-01T09:15:15.517Z,55.98
2023-03-01T09:17:43.974Z,55.77
2023-03-01T09:20:13.357Z,55.63
2023-03-01T09:22:41.700Z,56.13
2023-03-01T09:25:10.915Z,55.59
2023-03-01T09:27:40.683Z,55.44
2023-03-01T09:30:11.179Z,55.51
2023-03-01T09:32:43.769Z,55.36
2023-03-01T09:35:12.148Z,55.67
2023-03-01T09:37:40.923Z,55.96
2023-03-01T09:40:16.773Z,55.96
2023-03-01T09:42:55.365Z,55.35
2023-03-01T09:45:30.760Z,55.32
2023-03-01T09:47:59.453Z,54.39
2023-03-01T09:50:30.612Z,54.79
2023-03-01T09:53:06.837Z,54.81
2023-03-01T09:55:44.831Z,54.34
2023-03-01T09:58:41.082Z,54.16
2023-03-01T10:01:26.217Z,54.31
2023-03-01T10:04:07.574Z,54.32
2023-03-01T10:06:35.977Z,54.30
2023-03-01T10:09:10.125Z,53.20
2023-03-01T10:11:41.952Z,53.29
2023-03-01T10:14:22.205Z,53.00
2023-03-01T10:16:55.813Z,53.08
2023-03-01T10:19:25.476Z,52.83
2023-03-01T10:21:54.268Z,53.11
2023-03-01T10:24:23.002Z,52.28
2023-03-01T10:26:58.584Z,53.13
2023-03-01T10:29:34.109Z,53.16
2023-03-01T10:32:03.140Z,53.24
2023-03-01T10:34:33.761Z,53.40
2023-03-01T10:37:11.547Z,51.14
2023-03-01T10:39:56.153Z,51.12
2023-03-01T10:42:29.713Z,51.74
2023-03-01T10:45:00.766Z,51.18
2023-03-01T10:47:30.818Z,51.26
2023-03-01T10:50:03.043Z,50.26
2023-03-01T10:52:36.946Z,49.84
2023-03-01T10:55:27.107Z,49.01
2023-03-01T10:58:09.735Z,50.37
2023-03-01T11:00:50.438Z,49.58
2023-03-01T11:03:23.323Z,49.54
2023-03-01T11:06:04.713Z,49.45
2023-03-01T11:08:39.096Z,49.06
2023-03-01T11:11:21.690Z,49.03
2023-03-01T11:13:59.024Z,49.14
2023-03-01T11:16:35.015Z,47.99
2023-03-01T11:19:18.698Z,49.34
2023-03-01T11:21:54.649Z,49.18
2023-03-01T11:24:28.753Z,49.33
2023-03-01T11:26:58.212Z,49.31
2023-03-01T11:29:43.227Z,49.53
2023-03-01T11:32:18.372Z,49.17
2023-03-01T11:34:51.914Z,49.20
2023-03-01T11:37:31.729Z,49.67
2023-03-01T11:40:08.291Z,48.94
2023-03-01T11:42:50.429Z,48.63
2023-03-01T11:45:18.803Z,48.84
2023-03-01T11:48:08.598Z,48.79
2023-03-01T11:50:44.614Z,49.06
2023-03-01T11:53:27.738Z,49.38
2023-03-01T11:56:06.945Z,48.44
2023-03-01T11:58:56.290Z,48.93
2023-03-01T12:01:40.918Z,48.89
2023-03-01T12:04:36.604Z,48.16
2023-03-01T12:07:13.851Z,46.57
2023-03-01T12:09:56.148Z,46.65
2023-03-01T12:12:38.778Z,46.89
2023-03-01T12:15:32.048Z,45.71
2023-03-01T12:18:22.599Z,46.28
2023-03-01T12:21:03.270Z,47.25
2023-03-01T12:23:51.897Z,47.48
2023-03-01T12:26:28.446Z,48.12
2023-03-01T12:29:21.032Z,47.68
2023-03-01T12:32:10.690Z,46.71
2023-03-01T12:35:09.063Z,46.43
2023-03-01T12:37:53.754Z,46.97
2023-03-01T12:40:44.731Z,47.06
2023-03-01T12:43:34.344Z,47.21
2023-03-01T12:46:18.644Z,46.79
2023-03-01T12:48:59.074Z,47.05
2023-03-01T12:51:32.137Z,47.17
2023-03-01T12:54:07.496Z,47.28
2023-03-01T12:56:41.132Z,47.14
2023-03-01T12:59:15.185Z,47.26
2023-03-01T13:01:54.401Z,46.69
2023-03-01T13:04:41.494Z,47.11
2023-03-01T13:07:26.758Z,47.39
2023-03-01T13:10:04.993Z,47.44
2023-03-01T13:12:48.158Z,47.31
2023-03-01T13:15:30.683Z,47.65
2023-03-01T13:18:00.586Z,47.41
2023-03-01T13:20:36.293Z,47.87
2023-03-01T13:23:09.810Z,47.02
2023-03-01T13:26:08.837Z,46.59
2023-03-01T13:28:48.691Z,47.02
2023-03-01T13:32:04.795Z,48.16
2023-03-01T13:34:47.825Z,48.14
2023-03-01T13:37:31.692Z,47.86
2023-03-01T13:40:05.727Z,47.93
2023-03-01T13:42:39.621Z,47.70
2023-03-01T13:45:19.428Z,47.38
2023-03-01T13:47:50.474Z,47.71
2023-03-01T13:50:22.544Z,48.09
2023-03-01T13:52:54.812Z,47.41
2023-03-01T13:55:27.288Z,47.43
2023-03-01T13:58:00.224Z,47.60
2023-03-01T14:00:36.978Z,47.71
2023-03-01T14:03:16.328Z,47.82
2023-03-01T14:06:12.674Z,47.83
2023-03-01T14:08:42.822Z,47.53
2023-03-01T14:11:48.275Z,47.04
2023-03-01T14:14:49.164Z,48.30
2023-03-01T14:17:40.142Z,48.92
2023-03-01T14:20:15.772Z,48.85
2023-03-01T14:22:45.426Z,48.25
2023-03-01T14:25:25.017Z,47.91
2023-03-01T14:28:05.928Z,48.18
2023-03-01T14:30:40.011Z,48.09
2023-03-01T14:33:21.451Z,48.40
2023-03-01T14:35:57.062Z,48.22
2023-03-01T14:38:30.258Z,48.33
2023-03-01T14:41:03.391Z,48.75
2023-03-01T14:43:33.888Z,48.85
2023-03-01T14:46:04.110Z,48.89
2023-03-01T14:48:34.733Z,48.86
2023-03-01T14:51:03.419Z,47.90
2023-03-01T14:53:42.776Z,47.56
2023-03-01T14:56:20.006Z,48.31
2023-03-01T14:58:49.545Z,47.77
2023-03-01T15:01:20.579Z,47.80
2023-03-01T15:03:51.233Z,47.13
2023-03-01T15:06:22.308Z,47.34
2023-03-01T15:08:54.196Z,46.80
2023-03-01T15:11:25.899Z,46.83
2023-03-01T15:13:55.403Z,47.25
2023-03-01T15:16:28.927Z,47.97
2023-03-01T15:18:58.678Z,47.77
2023-03-01T15:21:30.192Z,46.86
2023-03-01T15:24:05.129Z,47.22
2023-03-01T15:26:40.092Z,47.48
2023-03-01T15:29:17.827Z,47.72
2023-03-01T15:31:58.420Z,47.80
2023-03-01T15:34:28.320Z,47.46
2023-03-01T15:36:58.349Z,46.75
2023-03-01T15:39:39.539Z,47.43
2023-03-01T15:42:13.431Z,47.57
2023-03-01T15:44:47.027Z,47.49
2023-03-01T15:47:29.677Z,47.26
2023-03-01T15:49:59.419Z,46.93
2023-03-01T15:52:31.112Z,47.28
2023-03-01T15:55:02.248Z,47.49
2023-03-01T15:57:30.814Z,47.18
2023-03-01T15:59:59.152Z,47.04
2023-03-01T16:02:28.993Z,46.94
2023-03-01T16:04:58.131Z,47.13
2023-03-01T16:07:29.060Z,47.29
2023-03-01T16:09:57.448Z,47.36
2023-03-01T16:12:26.422Z,47.69
2023-03-01T16:14:55.172Z,47.67
2023-03-01T16:17:23.442Z,47.72
2023-03-01T16:19:53.562Z,47.88
2023-03-01T16:22:26.300Z,47.99
2023-03-01T16:24:54.729Z,48.06
2023-03-01T16:27:23.511Z,48.44
2023-03-01T16:29:52.276Z,48.75
2023-03-01T16:32:20.995Z,48.39
2023-03-01T16:34:50.473Z,48.35
2023-03-01T16:37:20.436Z,48.73
2023-03-01T16:39:50.029Z,48.56
2023-03-01T16:42:18.937Z,48.79
2023-03-01T16:44:47.327Z,48.68
2023-03-01T16:47:15.698Z,48.55
2023-03-01T16:49:44.228Z,48.98
2023-03-01T16:52:12.522Z,49.00
2023-03-01T16:54:42.287Z,49.23
2023-03-01T16:57:10.586Z,49.31
2023-03-01T16:59:38.918Z,49.21
2023-03-01T17:02:09.284Z,49.77
2023-03-01T17:04:37.584Z,49.63
2023-03-01T17:07:05.983Z,49.81
2023-03-01T17:09:37.524Z,49.81
2023-03-01T17:12:07.471Z,49.92
2023-03-01T17:14:35.747Z,50.17
2023-03-01T17:17:05.302Z,49.88
2023-03-01T17:19:34.960Z,50.22
2023-03-01T17:22:03.728Z,50.24
2023-03-01T17:24:35.143Z,50.40
2023-03-01T17:27:03.709Z,50.59
2023-03-01T17:29:33.802Z,50.52
2023-03-01T17:32:02.599Z,50.58
2023-03-01T17:34:33.389Z,50.72
2023-03-01T17:37:02.162Z,50.73
2023-03-01T17:39:36.257Z,50.84
2023-03-01T17:42:06.812Z,50.83
2023-03-01T17:44:37.530Z,50.70
2023-03-01T17:47:07.870Z,51.16
2023-03-01T17:49:36.183Z,51.17
2023-03-01T17:52:04.724Z,51.13
2023-03-01T17:54:33.673Z,50.94
2023-03-01T17:57:02.180Z,50.72
2023-03-01T17:59:33.562Z,50.92
2023-03-01T18:02:03.398Z,51.29
2023-03-01T18:04:32.517Z,50.90
2023-03-01T18:07:01.784Z,50.84
2023-03-01T18:09:30.650Z,51.14
2023-03-01T18:11:58.989Z,50.95
2023-03-01T18:14:29.909Z,51.16
2023-03-01T18:16:58.351Z,51.26
2023-03-01T18:19:28.787Z,51.41
2023-03-01T18:21:57.176Z,51.67
2023-03-01T18:24:25.819Z,51.14
2023-03-01T18:26:54.216Z,51.08
2023-03-01T18:29:22.564Z,51.18
2023-03-01T18:31:50.906Z,51.74
2023-03-01T18:34:19.222Z,51.43
2023-03-01T18:37:08.154Z,51.63
2023-03-01T18:39:37.264Z,51.77
2023-03-01T18:42:05.804Z,51.67
2023-03-01T18:44:34.155Z,51.49
2023-03-01T18:47:03.383Z,51.53
2023-03-01T18:49:31.695Z,51.65
2023-03-01T18:52:01.918Z,51.63
2023-03-01T18:54:30.781Z,51.67
2023-03-01T18:56:59.230Z,51.88
2023-03-01T18:59:27.699Z,51.83
2023-03-01T19:01:56.148Z,51.70
2023-03-01T19:04:24.524Z,51.89
2023-03-01T19:06:52.827Z,51.93
2023-03-01T19:09:23.154Z,51.68
2023-03-01T19:11:51.464Z,52.00
2023-03-01T19:14:19.852Z,51.70
2023-03-01T19:16:48.187Z,51.94
2023-03-01T19:19:16.501Z,52.14
2023-03-01T19:21:50.607Z,51.96
2023-03-01T19:24:23.041Z,51.96
2023-03-01T19:26:51.404Z,52.15
2023-03-01T19:29:19.784Z,51.86
2023-03-01T19:31:48.213Z,51.54
2023-03-01T19:34:17.078Z,52.15
2023-03-01T19:36:47.140Z,51.82
2023-03-01T19:39:16.164Z,52.32
2023-03-01T19:41:48.878Z,51.92
2023-03-01T19:44:18.514Z,52.02
2023-03-01T19:46:46.824Z,51.69
2023-03-01T19:49:16.048Z,51.71
2023-03-01T19:51:44.779Z,52.04
2023-03-01T19:54:15.321Z,52.13
2023-03-01T19:56:46.736Z,52.20
2023-03-01T19:59:17.498Z,52.04
2023-03-01T20:01:47.485Z,51.94
2023-03-01T20:04:17.440Z,52.23
2023-03-01T20:06:48.195Z,52.26
2023-03-01T20:09:21.808Z,51.96
2023-03-01T20:11:54.519Z,52.00
2023-03-01T20:14:24.640Z,51.81
2023-03-01T20:16:54.946Z,52.24
2023-03-01T20:19:24.604Z,51.79
2023-03-01T20:21:54.386Z,51.86
2023-03-01T20:24:23.851Z,52.05
2023-03-01T20:26:55.186Z,52.26
2023-03-01T20:29:25.019Z,52.29
2023-03-01T20:31:55.106Z,52.28
2023-03-01T20:34:24.745Z,52.47
2023-03-01T20:36:55.094Z,52.12
2023-03-01T20:39:25.916Z,52.55
2023-03-01T20:41:58.361Z,52.30
2023-03-01T20:44:28.101Z,52.58
2023-03-01T20:46:58.104Z,52.42
2023-03-01T20:49:27.818Z,52.39
2023-03-01T20:51:57.611Z,52.60
2023-03-01T20:54:28.425Z,52.66
2023-03-01T20:56:59.932Z,52.23
2023-03-01T20:59:29.956Z,52.49
2023-03-01T21:02:00.132Z,52.69
2023-03-01T21:04:29.822Z,52.41
2023-03-01T21:06:59.576Z,52.67
2023-03-01T21:09:29.510Z,52.45
2023-03-01T21:12:00.673Z,52.52
2023-03-01T21:14:30.437Z,52.88
2023-03-01T21:17:10.266Z,52.78
2023-03-01T21:19:44.273Z,52.71
2023-03-01T21:22:14.894Z,52.60
2023-03-01T21:24:45.243Z,52.55
2023-03-01T21:27:15.934Z,53.08
2023-03-01T21:29:46.536Z,52.41
2023-03-01T21:32:16.064Z,52.78
2023-03-01T21:34:47.279Z,53.05
2023-03-01T21:37:17.191Z,52.67
2023-03-01T21:39:46.175Z,52.95
2023-03-01T21:42:16.471Z,52.70
2023-03-01T21:44:45.329Z,53.11
2023-03-01T21:47:14.008Z,53.36
2023-03-01T21:49:42.377Z,52.82
2023-03-01T21:52:17.215Z,53.38
2023-03-01T21:54:46.423Z,53.18
2023-03-01T21:57:17.317Z,53.18
2023-03-01T21:59:46.077Z,52.91
2023-03-01T22:02:15.981Z,53.02
2023-03-01T22:04:45.527Z,53.08
2023-03-01T22:07:13.821Z,52.76
2023-03-01T22:09:42.251Z,53.23
2023-03-01T22:12:10.497Z,53.25
2023-03-01T22:14:40.691Z,53.22
2023-03-01T22:17:09.316Z,53.02
2023-03-01T22:19:37.915Z,53.42
2023-03-01T22:22:06.599Z,53.13
2023-03-01T22:24:34.999Z,53.23
2023-03-01T22:27:03.285Z,53.31
2023-03-01T22:29:32.063Z,53.49
2023-03-01T22:32:02.192Z,53.59
2023-03-01T22:34:30.847Z,53.58
2023-03-01T22:36:59.383Z,53.15
2023-03-01T22:39:27.684Z,53.76
2023-03-01T22:41:56.281Z,53.04
2023-03-01T22:44:25.567Z,53.61
2023-03-01T22:46:54.259Z,53.54
2023-03-01T22:49:24.032Z,53.79
2023-03-01T22:51:53.692Z,53.35
2023-03-01T22:54:22.221Z,53.79
2023-03-01T22:56:51.152Z,53.52
2023-03-01T22:59:23.242Z,52.91
2023-03-01T23:01:52.230Z,53.31
2023-03-01T23:04:22.545Z,53.42
2023-03-01T23:06:54.307Z,53.38
2023-03-01T23:09:26.130Z,53.52
2023-03-01T23:11:55.773Z,53.43
2023-03-01T23:14:24.897Z,53.44
2023-03-01T23:16:54.162Z,53.99
2023-03-01T23:19:23.156Z,53.85
2023-03-01T23:21:54.644Z,53.49
2023-03-01T23:24:25.922Z,54.10
2023-03-01T23:26:54.529Z,53.71
2023-03-01T23:29:23.496Z,53.90
2023-03-01T23:31:51.838Z,53.59
2023-03-01T23:34:21.110Z,53.96
2023-03-01T23:36:49.384Z,53.65
2023-03-01T23:39:19.508Z,53.31
2023-03-01T23:41:48.021Z,53.39
2023-03-01T23:44:18.030Z,53.92
2023-03-01T23:46:48.082Z,53.85
2023-03-01T23:49:18.954Z,53.41
2023-03-01T23:51:48.998Z,54.23
2023-03-01T23:54:20.541Z,53.84
2023-03-01T23:56:49.413Z,54.04
2023-03-01T23:59:20.087Z,53.87
